Airfield :
LOGIN :

Register | Disclaimer

   EN    FR    IT 

 










Legend :    VFR   Marginal VFR   IFR   Intensive IFR   Very Intensive IFR
Visi :
Ceiling :
>= 8 km
>= 3000ft
5 to 8 km
1000 to 3000 ft
1500m to 5 km
500 to 1000 ft
800 to 1500m
200 to 500 ft
< 800m
< 200 ft
Symbols :   Thunderstorms  Fog  Heavy snow  Heavy precipitations  Wind > 20 kt
SIGMETs :     Misc.  Thunderstorms  Icing  Turbulence  Mountain Waves  Volcanic Ashes







- Airport Elevation : 19 ft
- IATA code : LCY
- Download approach charts


EGLC - London City

CURRENT METAR :
  • 210350Z AUTO 32003KT 9999 NCD 11/06 Q1024

EXPIRED METARs :
  • 210320Z AUTO VRB02KT 9999 NCD 11/06 Q1024
  • 210250Z AUTO 36003KT 9999 NCD 11/05 Q1024
  • 210220Z AUTO 34003KT 9999 NCD 11/06 Q1025
  • 210150Z AUTO 35003KT 9999 NCD 11/06 Q1025
  • 210120Z AUTO VRB01KT 9000 NCD 11/07 Q1025
  • 210050Z AUTO VRB02KT 9000 NCD 12/07 Q1026

TAF TAF EGLC
Valid from the 21 at 03:00 until the 21 at 12:00 UTC


210205Z 2103/2112 VRB04KT CAVOK
BECMG 2103/2105 7000
BECMG 2106/2109 CAVOK
ATIS : +44 20 7646 0224
No reported NOTAMs for that airfield.



MET'MAP, your aeronautical weather chart ! - Copyright ORBIFLY December 2007 - Disclaimer

ORBIFLY MET'MAP TEAM :

Programming & Development : Alexandra Zaïnal
Concept & Development : Baudouin d'Aumeries
Co-Development & Prog : Marc-Olivier Méhu
Technical & hardware support : Manuel Goepfert

Contact : metmap@orbifly.com




SOURCES & CREDITS :

   NOAA